Time;durP1;ratioP1;P1;durP2;ratioP2;P2;SDS_P1;SDS_P2;PMS_P1;PMS_P2;Temp;Humidity;BMP_temperature;BMP_pressure;BME280_temperature;BME280_humidity;BME280_pressure;Samples;Min_cycle;Max_cycle;Signal;HPM_P1;HPM_P2
2020/12/01 07:55:26;;;;;;;63.83;32.38;;;3.80;99.90;;;;;;5107675;27;20774;-67
2020/12/01 07:58:00;;;;;;;56.78;25.13;;;3.90;99.90;;;;;;5084981;27;20601;-66
2020/12/01 08:00:27;;;;;;;51.13;26.15;;;3.90;99.90;;;;;;5086818;28;20227;-67
2020/12/01 08:03:10;;;;;;;55.92;25.15;;;3.90;99.90;;;;;;5088887;28;20201;-67
2020/12/01 08:05:36;;;;;;;57.65;25.88;;;3.90;99.90;;;;;;5088177;28;20245;-67
2020/12/01 08:08:03;;;;;;;49.40;27.10;;;3.90;99.90;;;;;;5086847;28;20212;-67
2020/12/01 08:10:31;;;;;;;63.28;28.52;;;3.90;99.90;;;;;;5088072;28;20273;-67
2020/12/01 08:13:01;;;;;;;58.05;26.00;;;4.00;99.90;;;;;;5088190;28;20205;-67
2020/12/01 08:15:29;;;;;;;52.95;24.00;;;4.00;99.90;;;;;;5088095;28;20208;-67
2020/12/01 08:17:55;;;;;;;54.90;28.45;;;4.00;99.90;;;;;;5089135;28;20204;-66
2020/12/01 08:20:24;;;;;;;53.70;27.35;;;4.00;99.90;;;;;;5088356;28;20298;-67
2020/12/01 08:22:57;;;;;;;65.35;27.08;;;4.00;99.90;;;;;;5088538;28;20235;-67
2020/12/01 08:25:29;;;;;;;55.08;27.10;;;4.00;99.90;;;;;;5087861;28;20201;-67
2020/12/01 08:28:05;;;;;;;55.13;28.70;;;4.00;99.90;;;;;;5082172;28;20193;-67
2020/12/01 08:30:44;;;;;;;54.42;26.50;;;4.00;99.90;;;;;;5086796;28;20220;-67
2020/12/01 08:33:19;;;;;;;63.55;29.30;;;4.00;99.90;;;;;;5088227;28;20207;-67
2020/12/01 08:35:54;;;;;;;57.90;26.92;;;4.00;99.90;;;;;;5089292;28;20720;-68
2020/12/01 08:38:33;;;;;;;63.55;28.60;;;4.00;99.90;;;;;;5087059;28;20204;-67
2020/12/01 08:41:08;;;;;;;73.15;31.42;;;4.00;99.90;;;;;;5086927;28;20277;-66
2020/12/01 08:43:43;;;;;;;61.90;27.92;;;4.00;99.90;;;;;;5088319;28;20253;-67
2020/12/01 08:46:17;;;;;;;59.05;29.27;;;4.00;99.90;;;;;;5088103;28;20287;-67
2020/12/01 08:48:47;;;;;;;68.97;28.55;;;4.10;99.90;;;;;;5087996;28;20293;-68
2020/12/01 08:51:24;;;;;;;61.22;30.25;;;4.10;99.90;;;;;;5083191;28;20592;-67
2020/12/01 08:53:54;;;;;;;59.00;31.30;;;4.10;99.90;;;;;;5075299;28;20204;-67
2020/12/01 08:56:34;;;;;;;66.55;31.20;;;4.10;99.90;;;;;;5087264;28;20200;-67
2020/12/01 08:59:05;;;;;;;54.08;27.13;;;4.20;99.90;;;;;;5087369;28;20200;-67
2020/12/01 09:01:41;;;;;;;55.50;27.40;;;4.20;99.90;;;;;;5087166;28;20228;-67
2020/12/01 09:04:19;;;;;;;62.00;26.85;;;4.30;99.90;;;;;;5087116;28;20216;-67
2020/12/01 09:06:46;;;;;;;53.38;26.63;;;4.30;99.90;;;;;;5067619;28;20204;-67
2020/12/01 09:09:20;;;;;;;58.13;28.67;;;4.30;99.90;;;;;;5073154;28;20201;-67
2020/12/01 09:17:26;;;;;;;52.78;26.48;;;4.30;99.90;;;;;;5070114;28;20199;-67
2020/12/01 09:20:11;;;;;;;55.40;25.77;;;4.30;99.90;;;;;;5074025;28;20571;-67
2020/12/01 09:22:37;;;;;;;46.47;25.48;;;4.30;99.90;;;;;;5073975;28;20205;-66
2020/12/01 09:25:06;;;;;;;52.15;25.00;;;4.30;99.90;;;;;;5072855;28;20701;-67
2020/12/01 09:27:34;;;;;;;48.85;23.58;;;4.30;99.90;;;;;;5071559;28;20201;-67
2020/12/01 09:30:01;;;;;;;48.10;22.63;;;4.30;99.90;;;;;;5073475;28;20197;-68
2020/12/01 09:32:28;;;;;;;51.08;26.63;;;4.30;99.90;;;;;;5072954;28;20228;-67
2020/12/01 09:34:54;;;;;;;47.28;24.33;;;4.30;99.90;;;;;;5073322;28;20557;-68
2020/12/01 09:37:21;;;;;;;44.10;23.70;;;4.30;99.90;;;;;;5073057;28;20657;-67
2020/12/01 09:39:48;;;;;;;51.20;24.27;;;4.40;99.90;;;;;;5072871;28;20259;-67
2020/12/01 09:42:23;;;;;;;48.10;23.77;;;4.40;99.90;;;;;;5073554;28;20228;-67
2020/12/01 09:45:01;;;;;;;46.97;24.13;;;4.40;99.90;;;;;;5074033;28;20225;-67
2020/12/01 09:47:35;;;;;;;46.45;25.00;;;4.40;99.90;;;;;;5073721;28;20565;-67
2020/12/01 09:50:03;;;;;;;46.00;23.23;;;4.40;99.90;;;;;;5072779;28;20201;-67
2020/12/01 09:52:35;;;;;;;43.67;23.13;;;4.40;99.90;;;;;;5073020;28;20263;-67
2020/12/01 09:55:06;;;;;;;41.88;21.67;;;4.50;99.90;;;;;;5072360;28;20548;-67
2020/12/01 09:57:45;;;;;;;50.40;23.35;;;4.50;99.90;;;;;;5073359;28;20225;-67
2020/12/01 10:08:34;;;;;;;44.88;20.90;;;4.50;99.90;;;;;;5055488;28;20208;-67
2020/12/01 10:11:09;;;;;;;40.97;21.65;;;4.50;99.90;;;;;;5073292;28;20328;-67
2020/12/01 10:13:45;;;;;;;44.38;23.63;;;4.50;99.90;;;;;;5073113;28;20258;-68
2020/12/01 10:19:44;;;;;;;34.95;21.35;;;4.50;99.90;;;;;;5071879;28;20215;-67
2020/12/01 10:35:50;;;;;;;38.88;22.52;;;4.60;99.90;;;;;;5072862;28;20196;-68
2020/12/01 10:38:16;;;;;;;43.03;22.40;;;4.60;99.90;;;;;;5071583;28;20247;-68
2020/12/01 10:40:42;;;;;;;50.63;24.63;;;4.60;99.90;;;;;;5071329;28;20275;-68
2020/12/01 10:43:09;;;;;;;40.95;19.88;;;4.60;99.90;;;;;;5067612;28;20217;-67
2020/12/01 10:45:35;;;;;;;44.92;23.40;;;4.60;99.90;;;;;;5072158;28;20225;-67
2020/12/01 10:48:01;;;;;;;40.13;21.33;;;4.60;99.90;;;;;;5072579;28;20213;-67
2020/12/01 10:50:30;;;;;;;43.60;20.98;;;4.60;99.90;;;;;;5060544;28;20704;-67
2020/12/01 10:52:58;;;;;;;41.47;20.90;;;4.60;99.90;;;;;;5071956;28;20209;-67
2020/12/01 10:55:27;;;;;;;45.22;21.48;;;4.70;99.90;;;;;;5071797;28;20227;-67
2020/12/01 10:57:53;;;;;;;40.03;20.10;;;4.70;99.90;;;;;;5071338;28;20255;-67
2020/12/01 11:00:21;;;;;;;41.70;22.58;;;4.70;99.90;;;;;;5072077;28;20202;-68
2020/12/01 11:02:48;;;;;;;33.30;19.27;;;4.70;99.90;;;;;;5071790;28;20209;-67
2020/12/01 11:05:18;;;;;;;41.58;21.10;;;4.70;99.90;;;;;;5072536;28;20232;-67
2020/12/01 11:07:44;;;;;;;38.88;19.25;;;4.70;99.90;;;;;;5072073;28;20230;-67
2020/12/01 11:10:11;;;;;;;39.15;20.20;;;4.80;99.90;;;;;;5071241;28;20209;-67
2020/12/01 11:12:37;;;;;;;38.60;19.77;;;4.80;99.90;;;;;;5071041;28;20734;-67
2020/12/01 11:15:04;;;;;;;35.70;20.48;;;4.80;99.90;;;;;;5071661;28;20665;-67
2020/12/01 11:17:30;;;;;;;34.83;19.05;;;4.90;99.90;;;;;;5071737;28;20197;-66
2020/12/01 11:19:56;;;;;;;41.15;18.95;;;4.90;99.90;;;;;;5072124;28;20278;-66
2020/12/01 11:22:22;;;;;;;32.90;18.17;;;4.90;99.90;;;;;;5071868;28;20628;-66
2020/12/01 11:24:48;;;;;;;30.63;18.45;;;4.90;99.90;;;;;;5070829;28;20331;-66
2020/12/01 11:27:15;;;;;;;37.33;18.92;;;4.90;99.90;;;;;;5064851;28;20680;-66
2020/12/01 11:29:42;;;;;;;39.97;19.58;;;4.90;99.90;;;;;;5061644;28;20252;-67
2020/12/01 11:32:08;;;;;;;33.85;18.00;;;5.00;99.90;;;;;;5052173;28;20233;-66
2020/12/01 11:34:34;;;;;;;41.42;18.60;;;5.00;99.90;;;;;;5072072;28;20201;-66
2020/12/01 11:37:00;;;;;;;31.17;17.52;;;5.00;99.90;;;;;;5072458;28;20212;-66
2020/12/01 11:39:27;;;;;;;32.50;16.90;;;5.00;99.90;;;;;;5070885;28;20205;-66
2020/12/01 11:41:53;;;;;;;32.42;18.45;;;5.10;99.90;;;;;;5072174;28;20280;-66
2020/12/01 11:44:20;;;;;;;41.95;19.67;;;5.10;99.90;;;;;;5067940;28;20718;-66
2020/12/01 11:46:47;;;;;;;35.22;20.42;;;5.10;99.90;;;;;;5071581;28;20232;-66
2020/12/01 11:49:14;;;;;;;29.40;17.13;;;5.10;99.90;;;;;;5071310;28;20236;-67
2020/12/01 11:51:41;;;;;;;30.40;16.42;;;5.10;99.90;;;;;;5070708;28;20217;-67
2020/12/01 11:54:09;;;;;;;30.90;15.70;;;5.10;99.90;;;;;;5069981;28;20267;-66
2020/12/01 11:56:35;;;;;;;36.75;19.15;;;5.10;99.90;;;;;;5071622;28;20262;-66
2020/12/01 11:59:01;;;;;;;28.55;16.40;;;5.10;99.90;;;;;;5070663;28;20205;-66
2020/12/01 12:01:28;;;;;;;32.80;16.88;;;5.10;99.90;;;;;;5070546;28;20696;-66
2020/12/01 12:03:54;;;;;;;30.30;17.05;;;5.10;99.90;;;;;;5070568;28;20221;-66
2020/12/01 12:06:21;;;;;;;28.83;16.25;;;5.10;99.90;;;;;;5071484;28;20262;-66
2020/12/01 12:08:47;;;;;;;30.48;14.02;;;5.10;99.90;;;;;;5070169;28;20231;-67
2020/12/01 12:11:13;;;;;;;26.38;15.85;;;5.10;99.90;;;;;;5071490;28;20224;-67
2020/12/01 12:13:40;;;;;;;29.65;16.25;;;5.10;99.90;;;;;;5070354;28;20658;-67
2020/12/01 12:16:06;;;;;;;22.83;16.20;;;5.10;99.90;;;;;;5071431;28;20714;-67
2020/12/01 12:18:33;;;;;;;26.77;15.48;;;5.10;99.90;;;;;;5070103;28;20205;-67
2020/12/01 12:20:59;;;;;;;29.20;16.40;;;5.10;99.90;;;;;;5056193;28;20217;-67
2020/12/01 12:23:25;;;;;;;27.35;16.25;;;5.10;99.90;;;;;;5069459;28;20616;-67
2020/12/01 12:25:52;;;;;;;25.77;15.10;;;5.10;99.90;;;;;;5070778;28;20291;-67
2020/12/01 12:28:18;;;;;;;28.80;15.70;;;5.20;99.90;;;;;;5070739;28;20209;-67
2020/12/01 12:30:46;;;;;;;29.00;16.58;;;5.10;99.90;;;;;;5070815;28;20233;-67
2020/12/01 12:33:12;;;;;;;33.47;17.23;;;5.20;99.90;;;;;;5069605;28;20609;-67
2020/12/01 12:35:39;;;;;;;15.68;8.95;;;5.30;99.90;;;;;;5070947;28;20247;-67
2020/12/01 12:38:06;;;;;;;26.08;15.68;;;5.20;99.90;;;;;;5069190;28;20201;-67
2020/12/01 12:40:32;;;;;;;25.95;14.73;;;5.20;99.90;;;;;;5070891;28;20620;-67
2020/12/01 12:42:58;;;;;;;25.38;13.98;;;5.20;99.90;;;;;;5073387;28;20243;-67
2020/12/01 12:45:24;;;;;;;32.75;16.60;;;5.20;99.90;;;;;;5074167;28;20247;-67
2020/12/01 12:47:50;;;;;;;25.50;15.55;;;5.20;99.90;;;;;;5073709;28;20201;-67
2020/12/01 12:50:17;;;;;;;31.35;14.40;;;5.20;99.90;;;;;;5073907;28;20266;-67
2020/12/01 12:52:44;;;;;;;28.67;16.60;;;5.30;99.90;;;;;;5073569;28;20586;-67
2020/12/01 12:55:10;;;;;;;31.83;16.40;;;5.30;99.90;;;;;;5073006;28;20576;-67
2020/12/01 12:57:36;;;;;;;31.10;17.17;;;5.20;99.90;;;;;;5074051;28;20213;-67
2020/12/01 13:00:04;;;;;;;32.17;17.42;;;5.20;99.90;;;;;;5073945;28;20312;-67
2020/12/01 13:02:31;;;;;;;30.00;16.73;;;5.30;99.90;;;;;;5073666;28;20291;-67
2020/12/01 13:04:57;;;;;;;26.90;16.05;;;5.30;99.90;;;;;;5074247;28;20275;-67
2020/12/01 13:07:23;;;;;;;32.47;16.60;;;5.30;99.90;;;;;;5074022;28;20267;-67
2020/12/01 13:09:50;;;;;;;26.65;16.05;;;5.30;99.90;;;;;;5073322;28;20233;-67
2020/12/01 13:12:16;;;;;;;30.13;16.85;;;5.30;99.90;;;;;;5073750;28;20225;-67
2020/12/01 13:14:42;;;;;;;34.28;17.45;;;5.30;99.90;;;;;;5073743;28;20618;-68
2020/12/01 13:17:08;;;;;;;33.20;17.20;;;5.30;99.90;;;;;;5074113;28;20239;-68
2020/12/01 13:19:35;;;;;;;28.25;15.63;;;5.30;99.90;;;;;;5073854;28;20197;-67
2020/12/01 13:22:01;;;;;;;28.88;15.30;;;5.30;99.90;;;;;;5073471;28;20217;-68
2020/12/01 13:24:27;;;;;;;30.58;15.52;;;5.20;99.90;;;;;;5072506;28;20685;-67
2020/12/01 13:26:54;;;;;;;29.65;16.00;;;5.20;99.90;;;;;;5073722;28;20212;-67
2020/12/01 13:29:20;;;;;;;25.80;15.52;;;5.20;99.90;;;;;;5073077;28;20209;-67
2020/12/01 13:31:47;;;;;;;32.00;16.08;;;5.20;99.90;;;;;;5073143;28;20225;-67
2020/12/01 13:34:13;;;;;;;31.98;17.55;;;5.20;99.90;;;;;;5073470;28;20201;-68
2020/12/01 13:36:39;;;;;;;35.90;18.05;;;5.20;99.90;;;;;;5072844;28;20289;-67
2020/12/01 13:39:06;;;;;;;32.42;17.65;;;5.20;99.90;;;;;;5068622;28;20202;-68
2020/12/01 13:41:32;;;;;;;32.53;16.77;;;5.20;99.90;;;;;;5053277;28;20233;-67
2020/12/01 13:43:59;;;;;;;32.35;17.23;;;5.20;99.90;;;;;;5069438;28;20693;-67
2020/12/01 13:46:25;;;;;;;35.05;18.77;;;5.10;99.90;;;;;;5073244;28;20201;-67
2020/12/01 13:48:51;;;;;;;37.25;18.48;;;5.10;99.90;;;;;;5072111;28;20262;-67
2020/12/01 13:51:18;;;;;;;32.00;17.90;;;5.10;99.90;;;;;;5073355;28;20324;-67
2020/12/01 13:53:45;;;;;;;35.03;18.98;;;5.10;99.90;;;;;;5069037;28;20272;-67
2020/12/01 13:56:11;;;;;;;39.60;20.60;;;5.10;99.90;;;;;;5072211;28;20254;-67
2020/12/01 13:58:37;;;;;;;43.25;21.15;;;5.10;99.90;;;;;;5053644;28;20206;-67
2020/12/01 14:01:05;;;;;;;41.30;20.75;;;5.00;99.90;;;;;;5072742;28;20769;-67
2020/12/01 14:03:31;;;;;;;39.90;18.25;;;5.00;99.90;;;;;;5072766;28;20274;-67
2020/12/01 14:05:57;;;;;;;38.17;17.38;;;5.00;99.90;;;;;;5065680;28;20226;-68
2020/12/01 14:08:23;;;;;;;35.65;17.73;;;5.00;99.90;;;;;;5070942;28;20291;-67
2020/12/01 14:10:49;;;;;;;37.40;18.60;;;5.00;99.90;;;;;;5072170;28;20278;-68
2020/12/01 14:13:15;;;;;;;40.03;19.27;;;5.00;99.90;;;;;;5072519;28;20231;-67
2020/12/01 14:15:42;;;;;;;36.70;18.90;;;5.00;99.90;;;;;;5072715;28;20338;-67
2020/12/01 14:18:09;;;;;;;40.72;17.60;;;5.00;99.90;;;;;;5072966;28;20213;-67
2020/12/01 14:20:35;;;;;;;38.22;20.83;;;5.00;99.90;;;;;;5072321;28;20708;-67
2020/12/01 14:23:01;;;;;;;35.15;17.83;;;4.90;99.90;;;;;;5071750;28;20254;-67
2020/12/01 14:25:27;;;;;;;40.80;19.55;;;4.90;99.90;;;;;;5071666;28;20633;-67
2020/12/01 14:27:53;;;;;;;36.13;18.90;;;4.90;99.90;;;;;;5072838;28;20205;-66
2020/12/01 14:30:22;;;;;;;42.95;21.65;;;4.90;99.90;;;;;;5069421;28;20266;-67
2020/12/01 14:32:48;;;;;;;40.83;22.55;;;4.90;99.90;;;;;;5071790;28;20284;-67
2020/12/01 14:35:17;;;;;;;47.22;22.25;;;4.90;99.90;;;;;;5072045;28;20250;-67
2020/12/01 14:37:43;;;;;;;42.38;20.10;;;4.90;99.90;;;;;;5072087;28;20243;-67
2020/12/01 14:40:10;;;;;;;39.00;20.92;;;4.90;99.90;;;;;;5070867;28;20205;-67
2020/12/01 14:42:38;;;;;;;48.75;22.55;;;4.80;99.90;;;;;;5069848;28;20560;-67
2020/12/01 14:45:07;;;;;;;43.50;22.50;;;4.80;99.90;;;;;;5072187;28;20225;-67
2020/12/01 14:47:56;;;;;;;48.25;23.20;;;4.80;99.90;;;;;;5072234;28;20732;-68
2020/12/01 14:50:39;;;;;;;40.55;20.90;;;4.80;99.90;;;;;;5071493;28;20201;-67
2020/12/01 14:53:12;;;;;;;37.58;20.08;;;4.80;99.90;;;;;;5070756;28;20197;-67
2020/12/01 14:55:57;;;;;;;38.78;16.75;;;4.80;99.90;;;;;;5071556;28;20702;-67
2020/12/01 14:58:49;;;;;;;42.65;21.95;;;4.70;99.90;;;;;;5066488;28;20259;-67
2020/12/01 15:01:26;;;;;;;34.10;18.63;;;4.70;99.90;;;;;;5072031;28;20687;-67
2020/12/01 15:03:57;;;;;;;36.17;17.77;;;4.80;99.90;;;;;;5067558;28;20242;-67
2020/12/01 15:06:55;;;;;;;39.13;18.27;;;4.70;99.90;;;;;;5072038;28;20204;-67
2020/12/01 15:09:50;;;;;;;37.75;18.70;;;4.70;99.90;;;;;;5055154;28;20217;-67
2020/12/01 15:12:43;;;;;;;30.15;17.35;;;4.80;99.90;;;;;;5071218;28;20213;-66
2020/12/01 15:15:15;;;;;;;38.22;19.00;;;4.80;99.90;;;;;;5069215;28;20205;-67
2020/12/01 15:17:42;;;;;;;42.10;19.33;;;4.80;99.90;;;;;;5071029;28;20266;-67
2020/12/01 15:20:13;;;;;;;39.42;19.95;;;4.80;99.90;;;;;;5071236;28;20271;-67
2020/12/01 15:22:59;;;;;;;34.80;19.30;;;4.80;99.90;;;;;;5071044;28;20235;-67
2020/12/01 15:25:29;;;;;;;51.80;22.20;;;4.70;99.90;;;;;;5070167;28;20225;-67
2020/12/01 15:28:01;;;;;;;38.45;17.67;;;4.70;99.90;;;;;;5071504;28;20201;-67
2020/12/01 15:30:27;;;;;;;38.15;20.65;;;4.70;99.90;;;;;;5070796;28;20696;-67
2020/12/01 15:32:53;;;;;;;34.50;18.83;;;4.70;99.90;;;;;;5070940;28;20665;-67
2020/12/01 15:35:25;;;;;;;40.45;18.75;;;4.70;99.90;;;;;;5071518;28;20209;-67
2020/12/01 15:37:58;;;;;;;40.25;19.65;;;4.70;99.90;;;;;;5070380;28;20251;-67
2020/12/01 15:40:45;;;;;;;48.28;21.45;;;4.70;99.90;;;;;;5071241;28;20250;-67
2020/12/01 15:43:14;;;;;;;37.55;19.98;;;4.70;99.90;;;;;;5070422;28;20201;-67
2020/12/01 15:45:40;;;;;;;47.13;21.45;;;4.70;99.90;;;;;;5071075;28;20217;-67
2020/12/01 15:48:10;;;;;;;41.75;18.38;;;4.70;99.90;;;;;;5071247;28;20602;-67
2020/12/01 15:50:37;;;;;;;39.08;17.45;;;4.70;99.90;;;;;;5071219;28;20653;-67
2020/12/01 15:53:23;;;;;;;41.78;20.45;;;4.70;99.90;;;;;;5069639;28;20708;-67
2020/12/01 15:55:54;;;;;;;50.15;19.45;;;4.70;99.90;;;;;;5070356;28;20193;-67
2020/12/01 15:58:46;;;;;;;39.00;19.60;;;4.70;99.90;;;;;;5070984;28;20263;-67
2020/12/01 16:01:27;;;;;;;38.08;18.20;;;4.70;99.90;;;;;;5061040;28;20229;-67
2020/12/01 16:04:35;;;;;;;30.48;16.85;;;4.70;99.90;;;;;;5068033;28;20239;-67
2020/12/01 16:07:29;;;;;;;37.35;19.85;;;4.60;99.90;;;;;;5005775;28;20205;-67
2020/12/01 16:10:25;;;;;;;33.95;18.05;;;4.60;99.90;;;;;;5068033;28;20231;-67
2020/12/01 16:13:16;;;;;;;36.85;17.65;;;4.60;99.90;;;;;;5054457;28;20642;-67
2020/12/01 16:16:03;;;;;;;40.30;19.20;;;4.60;99.90;;;;;;5072546;28;20251;-67
2020/12/01 16:18:38;;;;;;;40.03;18.35;;;4.60;99.90;;;;;;5069895;28;20209;-68
2020/12/01 16:21:19;;;;;;;45.47;19.23;;;4.60;99.90;;;;;;5072709;28;20231;-68
2020/12/01 16:23:48;;;;;;;36.22;19.52;;;4.60;99.90;;;;;;5070959;28;20205;-68
2020/12/01 16:26:33;;;;;;;38.97;17.63;;;4.60;99.90;;;;;;5074519;28;20251;-68
2020/12/01 16:29:32;;;;;;;35.63;17.05;;;4.60;99.90;;;;;;5067294;28;20217;-67
2020/12/01 16:31:58;;;;;;;35.70;16.75;;;4.60;99.90;;;;;;5058362;28;20639;-68
2020/12/01 16:34:24;;;;;;;35.60;18.75;;;4.60;99.90;;;;;;5074042;28;20719;-67
2020/12/01 16:37:21;;;;;;;29.50;14.15;;;4.60;99.90;;;;;;5074524;28;20201;-67
2020/12/01 16:39:58;;;;;;;33.70;16.15;;;4.50;99.90;;;;;;5073387;28;20212;-67
2020/12/01 16:42:48;;;;;;;33.85;18.85;;;4.50;99.90;;;;;;5074038;28;20328;-67
2020/12/01 16:45:24;;;;;;;32.65;18.27;;;4.60;99.90;;;;;;5073943;28;20229;-67
2020/12/01 16:48:07;;;;;;;37.42;18.25;;;4.50;99.90;;;;;;5073561;28;20308;-68
2020/12/01 16:50:43;;;;;;;38.03;18.48;;;4.50;99.90;;;;;;5075039;28;20225;-68
2020/12/01 16:53:38;;;;;;;34.70;19.35;;;4.50;99.90;;;;;;5074167;28;20246;-68
2020/12/01 16:56:25;;;;;;;41.78;19.25;;;4.60;99.90;;;;;;5074536;28;20251;-68
2020/12/01 16:59:02;;;;;;;40.90;19.60;;;4.50;99.90;;;;;;5074048;28;20201;-68
2020/12/01 17:01:41;;;;;;;42.03;21.02;;;4.60;99.90;;;;;;5074028;28;20224;-68
2020/12/01 17:04:49;;;;;;;42.55;20.90;;;4.60;99.90;;;;;;5073991;28;20607;-68
2020/12/01 17:07:20;;;;;;;47.13;22.17;;;4.60;99.90;;;;;;5071278;28;20259;-68
2020/12/01 17:09:50;;;;;;;40.85;21.42;;;4.60;99.90;;;;;;5073061;28;20205;-68
2020/12/01 17:13:03;;;;;;;52.58;25.17;;;4.50;99.90;;;;;;5074198;28;20665;-68
2020/12/01 17:15:56;;;;;;;44.58;24.05;;;4.50;99.90;;;;;;5073589;28;20223;-68
2020/12/01 17:18:23;;;;;;;42.17;24.25;;;4.50;99.90;;;;;;5074160;28;20213;-68
2020/12/01 17:20:49;;;;;;;47.28;23.77;;;4.60;99.90;;;;;;5072812;28;20232;-68
2020/12/01 17:23:18;;;;;;;41.70;21.50;;;4.50;99.90;;;;;;5072692;28;20572;-68
2020/12/01 17:25:44;;;;;;;55.67;26.08;;;4.50;99.90;;;;;;5072596;28;20271;-68
2020/12/01 17:28:15;;;;;;;45.75;24.77;;;4.50;99.90;;;;;;5073633;28;20239;-68
2020/12/01 17:31:21;;;;;;;54.30;23.88;;;4.50;99.90;;;;;;5073341;28;20274;-68
2020/12/01 17:33:56;;;;;;;46.88;23.83;;;4.60;99.90;;;;;;5073472;28;20205;-68
2020/12/01 17:36:26;;;;;;;51.67;25.35;;;4.60;99.90;;;;;;5073520;28;20196;-68
2020/12/01 17:39:00;;;;;;;57.60;26.42;;;4.60;99.90;;;;;;5072625;28;20205;-68
2020/12/01 17:41:36;;;;;;;50.80;24.67;;;4.50;99.90;;;;;;5058901;28;20907;-68
2020/12/01 17:44:15;;;;;;;56.20;24.90;;;4.60;99.90;;;;;;5069014;28;20738;-68
2020/12/01 17:46:48;;;;;;;47.92;22.98;;;4.50;99.90;;;;;;5069556;28;20274;-68
2020/12/01 17:49:21;;;;;;;52.83;26.70;;;4.50;99.90;;;;;;5070113;28;20223;-68
2020/12/01 17:51:48;;;;;;;49.17;23.52;;;4.50;99.90;;;;;;5070703;28;20334;-68
2020/12/01 17:54:17;;;;;;;48.50;22.13;;;4.50;99.90;;;;;;5068711;28;20511;-68
2020/12/01 17:56:46;;;;;;;53.00;25.25;;;4.50;99.90;;;;;;5070281;28;20274;-68
2020/12/01 17:59:15;;;;;;;43.10;23.30;;;4.50;99.90;;;;;;5070242;28;20673;-68
2020/12/01 18:01:44;;;;;;;42.88;22.30;;;4.50;99.90;;;;;;5069304;28;20766;-68
2020/12/01 18:04:11;;;;;;;59.97;25.90;;;4.50;99.90;;;;;;5070066;28;20201;-68
2020/12/01 18:06:38;;;;;;;52.63;23.63;;;4.40;99.90;;;;;;5070106;28;20274;-68
2020/12/01 18:09:04;;;;;;;56.67;25.35;;;4.40;99.90;;;;;;5070217;28;20202;-68
2020/12/01 18:11:51;;;;;;;56.45;27.58;;;4.50;99.90;;;;;;5068558;28;20302;-68
2020/12/01 18:14:28;;;;;;;58.42;26.25;;;4.50;99.90;;;;;;5069819;28;20205;-68
2020/12/01 18:17:08;;;;;;;50.60;25.15;;;4.50;99.90;;;;;;5069899;28;20735;-68
2020/12/01 18:19:50;;;;;;;58.65;25.98;;;4.50;99.90;;;;;;5060142;28;20209;-68
2020/12/01 18:22:23;;;;;;;44.65;22.10;;;4.50;99.90;;;;;;5071375;28;20225;-68
2020/12/01 18:24:59;;;;;;;61.17;28.52;;;4.50;99.90;;;;;;5071269;28;20750;-68
2020/12/01 18:27:29;;;;;;;55.85;27.55;;;4.50;99.90;;;;;;5067104;28;20210;-68
2020/12/01 18:30:05;;;;;;;60.88;26.38;;;4.50;99.90;;;;;;5057920;28;20540;-68
2020/12/01 18:32:41;;;;;;;55.83;28.83;;;4.50;99.90;;;;;;5071583;28;20789;-68
2020/12/01 18:35:16;;;;;;;62.92;27.13;;;4.50;99.90;;;;;;5071783;28;20725;-68
2020/12/01 18:37:44;;;;;;;65.10;27.63;;;4.50;99.90;;;;;;5071555;28;20212;-68
2020/12/01 18:40:14;;;;;;;65.50;27.58;;;4.50;99.90;;;;;;5071077;28;20251;-68
2020/12/01 18:42:43;;;;;;;61.22;28.75;;;4.50;99.90;;;;;;5070800;28;20262;-68
2020/12/01 18:45:17;;;;;;;55.85;27.70;;;4.50;99.90;;;;;;5071383;28;20266;-69
2020/12/01 18:47:45;;;;;;;60.47;26.35;;;4.50;99.90;;;;;;5071561;28;20231;-69
2020/12/01 18:50:15;;;;;;;65.85;29.45;;;4.50;99.90;;;;;;5064578;28;20214;-69
2020/12/01 18:52:42;;;;;;;67.05;29.05;;;4.50;99.90;;;;;;5069501;28;20247;-69
2020/12/01 18:55:08;;;;;;;59.50;26.80;;;4.50;99.90;;;;;;5068602;28;20205;-69
2020/12/01 18:57:35;;;;;;;57.80;27.60;;;4.50;99.90;;;;;;5052677;28;20706;-68
2020/12/01 19:00:01;;;;;;;65.25;29.13;;;4.50;99.90;;;;;;5057876;28;20202;-70
2020/12/01 19:02:27;;;;;;;67.45;30.75;;;4.50;99.90;;;;;;5051217;28;20593;-70
2020/12/01 19:04:54;;;;;;;69.20;29.95;;;4.50;99.90;;;;;;5059570;28;20274;-70
2020/12/01 19:07:20;;;;;;;60.92;26.83;;;4.40;99.90;;;;;;5068711;28;20209;-68
2020/12/01 19:09:47;;;;;;;60.63;28.23;;;4.50;99.90;;;;;;5068153;28;20201;-68
2020/12/01 19:12:13;;;;;;;67.18;29.63;;;4.40;99.90;;;;;;5068691;28;20229;-69
2020/12/01 19:14:39;;;;;;;68.35;30.65;;;4.40;99.90;;;;;;5070017;28;20205;-68
2020/12/01 19:17:06;;;;;;;73.10;29.83;;;4.40;99.90;;;;;;5069890;28;20209;-69
2020/12/01 19:19:32;;;;;;;67.95;30.90;;;4.50;99.90;;;;;;5068957;28;20613;-68
2020/12/01 19:21:59;;;;;;;71.00;32.00;;;4.40;99.90;;;;;;5060267;28;20298;-69
2020/12/01 19:24:28;;;;;;;77.20;34.10;;;4.50;99.90;;;;;;5065685;28;21036;-68
2020/12/01 19:26:55;;;;;;;66.88;31.23;;;4.40;99.90;;;;;;5070789;28;20193;-69
2020/12/01 19:29:21;;;;;;;62.60;29.58;;;4.40;99.90;;;;;;5070640;28;20213;-68
2020/12/01 19:31:49;;;;;;;69.13;32.53;;;4.50;99.90;;;;;;5061478;28;20590;-70
2020/12/01 19:34:16;;;;;;;75.50;32.40;;;4.40;99.90;;;;;;5066697;28;20282;-71
2020/12/01 19:36:43;;;;;;;67.05;33.25;;;4.40;99.90;;;;;;5071295;28;20197;-71
2020/12/01 19:39:10;;;;;;;62.08;33.22;;;4.50;99.90;;;;;;5070280;28;20293;-69
2020/12/01 19:41:36;;;;;;;75.10;31.30;;;4.50;99.90;;;;;;5051345;28;20230;-71
2020/12/01 19:44:03;;;;;;;66.05;31.70;;;4.50;99.90;;;;;;5058436;28;20193;-71
2020/12/01 19:46:30;;;;;;;78.93;32.35;;;4.50;99.90;;;;;;5070967;28;20750;-71
2020/12/01 19:48:56;;;;;;;77.68;34.05;;;4.50;99.90;;;;;;5071197;28;20242;-70
2020/12/01 19:51:23;;;;;;;73.10;33.63;;;4.50;99.90;;;;;;5070996;28;20252;-69
2020/12/01 19:53:49;;;;;;;74.10;33.03;;;4.50;99.90;;;;;;5070790;28;20205;-69
2020/12/01 19:56:16;;;;;;;70.57;32.13;;;4.50;99.90;;;;;;5070481;28;20732;-68
2020/12/01 19:58:42;;;;;;;70.50;31.67;;;4.50;99.90;;;;;;5071420;28;20201;-69
2020/12/01 20:01:11;;;;;;;81.43;34.30;;;4.40;99.90;;;;;;5071718;28;20225;-69
2020/12/01 20:03:38;;;;;;;76.75;34.25;;;4.40;99.90;;;;;;5070853;28;20258;-68
2020/12/01 20:06:04;;;;;;;74.63;34.22;;;4.40;99.90;;;;;;5070943;28;20286;-68
2020/12/01 20:08:31;;;;;;;62.88;29.80;;;4.40;99.90;;;;;;5071063;28;20208;-67
2020/12/01 20:10:57;;;;;;;82.93;35.58;;;4.40;99.90;;;;;;5070116;28;20688;-68
2020/12/01 20:13:24;;;;;;;88.88;36.92;;;4.40;99.90;;;;;;5071322;28;20247;-68
2020/12/01 20:15:50;;;;;;;72.85;35.35;;;4.40;99.90;;;;;;5054593;28;20262;-68
2020/12/01 20:18:16;;;;;;;81.50;34.42;;;4.40;99.90;;;;;;5071308;28;20215;-69
2020/12/01 20:20:43;;;;;;;69.40;32.83;;;4.40;99.90;;;;;;5071031;28;20233;-69
2020/12/01 20:23:09;;;;;;;72.25;33.58;;;4.40;99.90;;;;;;5070964;28;20282;-69
2020/12/01 20:25:35;;;;;;;81.88;34.63;;;4.40;99.90;;;;;;5070088;28;20217;-68
2020/12/01 20:28:01;;;;;;;88.32;38.47;;;4.40;99.90;;;;;;5071691;28;20269;-69
2020/12/01 20:30:30;;;;;;;88.30;36.20;;;4.40;99.90;;;;;;5071161;28;20225;-68
2020/12/01 20:32:57;;;;;;;79.88;36.50;;;4.40;99.90;;;;;;5070476;28;20577;-68
2020/12/01 20:36:16;;;;;;;79.70;36.08;;;4.40;99.90;;;;;;5070542;28;20201;-68
2020/12/01 20:39:34;;;;;;;68.00;33.92;;;4.40;99.90;;;;;;5070296;28;20232;-68
2020/12/01 20:42:01;;;;;;;78.05;34.05;;;4.40;99.90;;;;;;5052362;28;20226;-69
2020/12/01 20:44:28;;;;;;;74.43;33.70;;;4.40;99.90;;;;;;5064709;28;20657;-69
2020/12/01 20:46:55;;;;;;;80.07;37.72;;;4.40;99.90;;;;;;5075323;28;20577;-69
2020/12/01 20:49:21;;;;;;;87.72;35.60;;;4.40;99.90;;;;;;5073392;28;20205;-69
2020/12/01 20:51:48;;;;;;;89.82;35.38;;;4.40;99.90;;;;;;5072583;28;20222;-69
2020/12/01 20:54:14;;;;;;;86.22;34.60;;;4.40;99.90;;;;;;5070239;28;20217;-68
2020/12/01 20:56:41;;;;;;;84.15;34.63;;;4.40;99.90;;;;;;5070395;28;20636;-68
2020/12/01 20:59:07;;;;;;;83.97;36.30;;;4.40;99.90;;;;;;5070777;28;20272;-68
2020/12/01 21:01:33;;;;;;;75.75;35.90;;;4.40;99.90;;;;;;5072318;28;20275;-68
2020/12/01 21:04:00;;;;;;;85.57;35.80;;;4.30;99.90;;;;;;5074473;28;20197;-68
2020/12/01 21:06:26;;;;;;;87.25;36.97;;;4.30;99.90;;;;;;5075393;28;20224;-68
2020/12/01 21:08:52;;;;;;;78.45;34.75;;;4.30;99.90;;;;;;5075146;28;20197;-68
2020/12/01 21:11:25;;;;;;;80.85;36.60;;;4.30;99.90;;;;;;5076195;28;20221;-68
2020/12/01 21:13:53;;;;;;;85.93;33.55;;;4.30;99.90;;;;;;5075487;28;20220;-68
2020/12/01 21:16:23;;;;;;;83.00;33.72;;;4.30;99.90;;;;;;5074789;28;20203;-68
2020/12/01 21:18:50;;;;;;;65.80;34.20;;;4.30;99.90;;;;;;5074581;28;20197;-68
2020/12/01 21:21:19;;;;;;;83.22;37.65;;;4.30;99.90;;;;;;5073969;28;20267;-68